Time;durP1;ratioP1;P1;durP2;ratioP2;P2;SDS_P1;SDS_P2;PMS_P1;PMS_P2;Temp;Humidity;BMP_temperature;BMP_pressure;BME280_temperature;BME280_humidity;BME280_pressure;Samples;Min_cycle;Max_cycle;Signal;HPM_P1;HPM_P2
2021/04/21 00:00:51;;;;;;;18.77;12.57;;;6.10;52.40;;;;;;5092023;28;38847;-74
2021/04/21 00:03:20;;;;;;;15.83;12.20;;;6.10;52.40;;;;;;5089951;28;38558;-74
2021/04/21 00:05:49;;;;;;;18.10;12.83;;;6.10;52.30;;;;;;5065082;28;36896;-75
2021/04/21 00:08:16;;;;;;;19.00;12.87;;;6.10;52.50;;;;;;5083217;28;39793;-75
2021/04/21 00:10:47;;;;;;;16.27;12.23;;;6.10;52.70;;;;;;5021960;28;39055;-76
2021/04/21 00:13:15;;;;;;;20.17;12.73;;;6.00;52.60;;;;;;5083884;28;38216;-76
2021/04/21 00:15:42;;;;;;;19.13;13.47;;;6.00;52.80;;;;;;5090742;28;37389;-77
2021/04/21 00:18:14;;;;;;;16.07;12.57;;;6.00;52.80;;;;;;5078668;28;41070;-76
2021/04/21 00:20:43;;;;;;;20.13;12.93;;;6.00;52.90;;;;;;5060944;28;39074;-76
2021/04/21 00:23:12;;;;;;;18.60;13.50;;;5.90;52.60;;;;;;5075330;28;37663;-77
2021/04/21 00:25:40;;;;;;;16.60;12.90;;;5.90;52.80;;;;;;5085317;28;37192;-76
2021/04/21 00:28:08;;;;;;;19.70;12.73;;;5.80;53.00;;;;;;5059590;28;38502;-78
2021/04/21 00:30:37;;;;;;;16.73;12.60;;;5.80;53.10;;;;;;5069474;28;38756;-79
2021/04/21 00:33:05;;;;;;;17.30;12.57;;;5.80;53.10;;;;;;5064958;28;37168;-78
2021/04/21 00:35:36;;;;;;;17.83;12.73;;;5.80;53.10;;;;;;5056693;28;35815;-77
2021/04/21 00:38:09;;;;;;;18.20;13.10;;;5.80;53.20;;;;;;5072115;28;40248;-77
2021/04/21 00:40:46;;;;;;;19.33;14.30;;;5.80;53.20;;;;;;5070713;28;39723;-78
2021/04/21 00:43:23;;;;;;;19.50;13.77;;;5.70;53.50;;;;;;5070365;28;38452;-77
2021/04/21 00:45:55;;;;;;;20.57;13.57;;;5.60;53.50;;;;;;5078419;28;37334;-78
2021/04/21 00:48:35;;;;;;;19.67;13.63;;;5.60;53.50;;;;;;5057026;28;39409;-77
2021/04/21 00:51:09;;;;;;;17.70;13.50;;;5.70;53.70;;;;;;5074190;28;38821;-78
2021/04/21 00:53:42;;;;;;;22.50;14.90;;;5.60;53.70;;;;;;5055853;28;37257;-77
2021/04/21 00:56:28;;;;;;;16.30;12.97;;;5.60;53.90;;;;;;5070974;28;37544;-78
2021/04/21 00:59:01;;;;;;;17.83;13.13;;;5.50;54.00;;;;;;5055228;28;38226;-78
2021/04/21 01:01:30;;;;;;;18.07;13.43;;;5.40;54.00;;;;;;5055232;28;37783;-77
2021/04/21 01:03:58;;;;;;;22.33;13.43;;;5.40;54.10;;;;;;5069393;28;37150;-77
2021/04/21 01:06:30;;;;;;;17.93;12.73;;;5.40;54.00;;;;;;5054276;28;37468;-78
2021/04/21 01:09:04;;;;;;;18.77;13.80;;;5.30;53.90;;;;;;5067193;28;38329;-78
2021/04/21 01:11:35;;;;;;;17.50;13.23;;;5.30;54.10;;;;;;5052009;28;39000;-78
2021/04/21 01:14:08;;;;;;;17.77;13.03;;;5.30;54.20;;;;;;5066935;28;40158;-78
2021/04/21 01:16:38;;;;;;;18.40;13.27;;;5.20;54.60;;;;;;5054255;28;36309;-78
2021/04/21 01:19:12;;;;;;;22.63;14.50;;;5.20;54.20;;;;;;5056396;28;38291;-78
2021/04/21 01:21:44;;;;;;;20.57;14.00;;;5.20;54.00;;;;;;5043351;28;38669;-78
2021/04/21 01:24:24;;;;;;;20.20;13.40;;;5.10;54.10;;;;;;5072950;28;39215;-77
2021/04/21 01:27:01;;;;;;;17.93;12.63;;;5.00;54.30;;;;;;5073742;28;37946;-78
2021/04/21 01:29:32;;;;;;;22.10;13.77;;;5.00;54.30;;;;;;5063655;28;38975;-77
2021/04/21 01:32:04;;;;;;;20.10;14.47;;;5.00;54.40;;;;;;5077201;28;39313;-77
2021/04/21 01:34:34;;;;;;;22.13;14.27;;;4.90;54.30;;;;;;5050318;28;37816;-77
2021/04/21 01:37:05;;;;;;;20.17;14.80;;;4.80;54.20;;;;;;5072148;28;37014;-77
2021/04/21 01:39:38;;;;;;;22.00;14.30;;;4.90;54.30;;;;;;5054526;28;38607;-77
2021/04/21 01:42:07;;;;;;;20.50;14.03;;;4.80;54.40;;;;;;5072156;28;39050;-77
2021/04/21 01:44:40;;;;;;;23.57;15.03;;;4.80;54.50;;;;;;5086627;28;36909;-77
2021/04/21 01:47:10;;;;;;;22.50;14.00;;;4.70;54.70;;;;;;5061673;28;37159;-77
2021/04/21 01:50:02;;;;;;;20.73;14.23;;;4.70;55.00;;;;;;5072195;28;39210;-77
2021/04/21 01:52:44;;;;;;;20.73;13.73;;;4.70;55.20;;;;;;5064485;28;39673;-77
2021/04/21 01:55:33;;;;;;;20.93;14.23;;;4.70;55.20;;;;;;5076088;28;39463;-77
2021/04/21 01:58:12;;;;;;;21.40;14.17;;;4.70;55.10;;;;;;5057750;28;37257;-78
2021/04/21 02:00:44;;;;;;;23.57;14.67;;;4.80;54.90;;;;;;5057951;28;38460;-78
2021/04/21 02:03:19;;;;;;;18.67;14.10;;;4.70;54.80;;;;;;5087057;28;39662;-77
2021/04/21 02:06:22;;;;;;;23.10;15.10;;;4.60;55.00;;;;;;5100684;28;39641;-77
2021/04/21 02:09:00;;;;;;;21.20;14.83;;;4.60;55.20;;;;;;5042445;28;37318;-78
2021/04/21 02:11:31;;;;;;;23.23;14.80;;;4.50;55.10;;;;;;5053914;28;38169;-77
2021/04/21 02:14:23;;;;;;;23.33;15.60;;;4.50;55.80;;;;;;5072673;28;38453;-77
2021/04/21 02:17:06;;;;;;;20.80;14.67;;;4.40;55.10;;;;;;5073641;28;38247;-78
2021/04/21 02:19:46;;;;;;;22.00;16.07;;;4.40;55.30;;;;;;5069265;28;38119;-77
2021/04/21 02:22:30;;;;;;;19.50;13.43;;;4.40;55.40;;;;;;5079197;28;39089;-78
2021/04/21 02:25:05;;;;;;;21.97;15.00;;;4.40;55.50;;;;;;5087158;28;38093;-77
2021/04/21 02:27:40;;;;;;;19.03;13.40;;;4.50;55.50;;;;;;5063527;28;38296;-78
2021/04/21 02:30:13;;;;;;;21.00;14.37;;;4.50;55.40;;;;;;5067087;28;38063;-78
2021/04/21 02:33:05;;;;;;;19.57;13.50;;;4.50;55.10;;;;;;5052377;28;38632;-78
2021/04/21 02:35:41;;;;;;;20.20;13.77;;;4.60;55.20;;;;;;5059664;28;39142;-78
2021/04/21 02:38:19;;;;;;;20.97;15.53;;;4.50;54.90;;;;;;5065927;28;38083;-77
2021/04/21 02:41:02;;;;;;;18.93;14.20;;;4.50;54.90;;;;;;5067633;28;37505;-77
2021/04/21 02:43:42;;;;;;;20.87;14.33;;;4.40;55.10;;;;;;5059874;28;39420;-77
2021/04/21 02:46:21;;;;;;;23.40;14.53;;;4.40;55.20;;;;;;5073429;28;39504;-78
2021/04/21 02:49:01;;;;;;;18.67;13.87;;;4.30;55.30;;;;;;5055890;28;37533;-78
2021/04/21 02:51:38;;;;;;;16.77;13.13;;;4.40;55.40;;;;;;5055061;28;36930;-78
2021/04/21 02:54:12;;;;;;;20.20;13.37;;;4.40;55.20;;;;;;5059723;28;39478;-78
2021/04/21 02:56:50;;;;;;;19.43;12.97;;;4.40;55.20;;;;;;5081792;28;39643;-77
2021/04/21 02:59:30;;;;;;;20.20;13.67;;;4.40;55.00;;;;;;5064585;28;38210;-77
2021/04/21 03:02:04;;;;;;;20.73;13.33;;;4.40;54.80;;;;;;5053382;28;38039;-77
2021/04/21 03:04:39;;;;;;;19.37;13.97;;;4.40;54.80;;;;;;5062776;28;40905;-77
2021/04/21 03:07:15;;;;;;;22.30;13.80;;;4.40;54.80;;;;;;5056698;28;39965;-76
2021/04/21 03:09:48;;;;;;;20.77;13.63;;;4.30;54.70;;;;;;5043518;28;38018;-76
2021/04/21 03:12:22;;;;;;;22.53;14.63;;;4.20;55.00;;;;;;5057627;28;37426;-76
2021/04/21 03:14:55;;;;;;;21.30;13.50;;;4.20;55.30;;;;;;5065171;28;40172;-75
2021/04/21 03:17:22;;;;;;;22.07;14.70;;;4.20;55.40;;;;;;5049216;28;38794;-76
2021/04/21 03:19:55;;;;;;;17.83;13.03;;;4.10;55.60;;;;;;5065390;28;39026;-76
2021/04/21 03:22:27;;;;;;;20.57;14.40;;;4.10;55.80;;;;;;5048399;28;35968;-76
2021/04/21 03:24:59;;;;;;;27.60;13.93;;;4.10;56.00;;;;;;5078506;28;40586;-76
2021/04/21 03:27:34;;;;;;;23.43;14.90;;;4.00;55.80;;;;;;5066107;28;37987;-76
2021/04/21 03:30:04;;;;;;;28.30;14.40;;;4.00;55.80;;;;;;5053871;28;37655;-77
2021/04/21 03:32:35;;;;;;;24.83;15.77;;;4.00;55.90;;;;;;5058974;28;36366;-76
2021/04/21 03:35:05;;;;;;;21.70;15.30;;;4.00;55.90;;;;;;5074637;28;40140;-77
2021/04/21 03:37:46;;;;;;;21.80;15.20;;;3.90;56.00;;;;;;5063709;28;38728;-77
2021/04/21 03:40:14;;;;;;;21.20;14.47;;;3.90;56.10;;;;;;5061614;28;37462;-78
2021/04/21 03:42:42;;;;;;;20.97;14.70;;;3.90;55.90;;;;;;5078785;28;37405;-76
2021/04/21 03:45:11;;;;;;;23.17;16.10;;;3.90;55.80;;;;;;5071015;28;40695;-77
2021/04/21 03:47:42;;;;;;;23.77;16.27;;;3.80;55.80;;;;;;5063533;28;39211;-77
2021/04/21 03:50:11;;;;;;;20.50;14.60;;;3.80;55.90;;;;;;5087081;28;38560;-77
2021/04/21 03:52:44;;;;;;;23.20;15.53;;;3.70;55.80;;;;;;5090475;28;37549;-76
2021/04/21 03:55:15;;;;;;;26.83;15.30;;;3.70;55.80;;;;;;5073985;28;39277;-77
2021/04/21 03:57:48;;;;;;;19.97;14.80;;;3.70;55.60;;;;;;5067375;28;39452;-76
2021/04/21 04:00:16;;;;;;;25.93;16.13;;;3.60;55.70;;;;;;5056772;28;37152;-76
2021/04/21 04:02:50;;;;;;;22.57;14.63;;;3.60;56.00;;;;;;5043288;28;36354;-76
2021/04/21 04:05:20;;;;;;;28.60;16.93;;;3.60;55.40;;;;;;5057218;28;39613;-76
2021/04/21 04:07:51;;;;;;;22.73;14.80;;;3.60;55.70;;;;;;5041683;28;39104;-76
2021/04/21 04:10:19;;;;;;;24.90;15.83;;;3.50;55.90;;;;;;5049690;28;39246;-76
2021/04/21 04:12:52;;;;;;;24.10;16.20;;;3.50;56.20;;;;;;5037232;28;37111;-76
2021/04/21 04:15:23;;;;;;;24.00;15.77;;;3.40;56.30;;;;;;5048387;28;40789;-76
2021/04/21 04:17:51;;;;;;;23.23;16.37;;;3.40;56.50;;;;;;5057280;28;38988;-77
2021/04/21 04:20:21;;;;;;;25.00;16.70;;;3.40;56.60;;;;;;5056570;28;38678;-76
2021/04/21 04:22:51;;;;;;;26.57;17.47;;;3.40;56.70;;;;;;5068333;28;36067;-76
2021/04/21 04:25:19;;;;;;;20.83;14.33;;;3.40;56.60;;;;;;5046453;28;38132;-76
2021/04/21 04:27:47;;;;;;;26.47;16.70;;;3.40;56.90;;;;;;5034876;28;38852;-76
2021/04/21 04:30:16;;;;;;;28.70;18.27;;;3.40;57.00;;;;;;5051915;28;38506;-76
2021/04/21 04:32:44;;;;;;;31.40;19.40;;;3.40;57.20;;;;;;5037391;28;36069;-76
2021/04/21 04:35:13;;;;;;;29.20;18.37;;;3.40;57.20;;;;;;5042898;28;37929;-76
2021/04/21 04:37:42;;;;;;;28.97;18.30;;;3.40;57.20;;;;;;5045125;28;38117;-75
2021/04/21 04:40:12;;;;;;;26.13;17.87;;;3.50;57.50;;;;;;5051819;28;37769;-76
2021/04/21 04:42:40;;;;;;;29.20;18.30;;;3.50;57.70;;;;;;5056489;28;37291;-76
2021/04/21 04:45:08;;;;;;;26.90;18.50;;;3.60;57.90;;;;;;5056708;28;38886;-77
2021/04/21 04:47:42;;;;;;;26.93;17.60;;;3.70;58.00;;;;;;5073030;28;37811;-76
2021/04/21 04:50:12;;;;;;;32.37;18.80;;;3.70;57.90;;;;;;5049621;28;39096;-77
2021/04/21 04:52:40;;;;;;;26.37;17.80;;;3.80;58.00;;;;;;5053256;28;38696;-76
2021/04/21 04:55:11;;;;;;;27.10;17.70;;;4.00;58.30;;;;;;5047140;28;38360;-77
2021/04/21 04:57:41;;;;;;;26.43;16.73;;;4.10;58.10;;;;;;5043538;28;39244;-77
2021/04/21 05:00:11;;;;;;;22.93;16.50;;;4.20;57.90;;;;;;5049124;28;38327;-77
2021/04/21 05:02:41;;;;;;;23.97;16.97;;;4.30;57.60;;;;;;5058085;28;35942;-77
2021/04/21 05:05:10;;;;;;;23.20;16.00;;;4.40;57.70;;;;;;5071847;28;40385;-77
2021/04/21 05:07:42;;;;;;;27.40;16.80;;;4.60;57.20;;;;;;5072279;28;38934;-76
2021/04/21 05:10:19;;;;;;;23.83;17.33;;;4.70;57.00;;;;;;5069444;28;38384;-76
2021/04/21 05:12:50;;;;;;;39.60;20.10;;;4.80;56.80;;;;;;5074889;28;37202;-76
2021/04/21 05:16:01;;;;;;;25.23;17.30;;;5.00;56.90;;;;;;5070051;28;39952;-76
2021/04/21 05:19:06;;;;;;;23.63;15.93;;;5.20;55.70;;;;;;5076321;28;38833;-76
2021/04/21 05:22:13;;;;;;;30.97;15.47;;;5.40;55.50;;;;;;5072988;28;39320;-76
2021/04/21 05:25:22;;;;;;;31.63;14.77;;;5.60;55.00;;;;;;5075548;28;37490;-76
2021/04/21 05:28:23;;;;;;;18.17;12.40;;;6.60;56.20;;;;;;5054993;28;38433;-77
2021/04/21 05:31:30;;;;;;;19.10;13.77;;;8.30;53.60;;;;;;5064017;28;39690;-77
2021/04/21 05:34:30;;;;;;;24.87;13.90;;;10.30;47.60;;;;;;5039578;28;39277;-77
2021/04/21 05:37:31;;;;;;;25.90;13.90;;;12.40;42.10;;;;;;5063624;28;37589;-78
2021/04/21 05:40:47;;;;;;;17.43;13.43;;;14.10;36.50;;;;;;5070691;28;39387;-78
2021/04/21 05:44:02;;;;;;;19.07;13.97;;;15.70;34.00;;;;;;5059056;28;39326;-78
2021/04/21 05:47:11;;;;;;;29.03;15.40;;;17.20;31.60;;;;;;5069384;28;39594;-77
2021/04/21 05:50:14;;;;;;;18.70;15.20;;;18.50;29.50;;;;;;5051181;28;36215;-78
2021/04/21 05:53:03;;;;;;;26.23;15.00;;;19.20;27.90;;;;;;5071518;28;37839;-77
2021/04/21 05:56:15;;;;;;;19.60;15.50;;;20.20;27.20;;;;;;5080411;28;39025;-78
2021/04/21 05:59:08;;;;;;;19.27;15.87;;;20.70;26.70;;;;;;5082118;28;37106;-78
2021/04/21 06:01:36;;;;;;;20.00;16.23;;;20.90;26.20;;;;;;5066665;28;37144;-78
2021/04/21 06:04:06;;;;;;;21.20;16.60;;;21.40;26.00;;;;;;5066452;28;40826;-78
2021/04/21 06:06:34;;;;;;;21.10;17.33;;;22.00;25.40;;;;;;5073088;28;38667;-77
2021/04/21 06:09:07;;;;;;;21.10;15.30;;;22.70;24.60;;;;;;5069999;28;38226;-78
2021/04/21 06:11:34;;;;;;;18.80;16.47;;;22.90;24.00;;;;;;5071968;28;38219;-78
2021/04/21 06:14:04;;;;;;;198.97;123.27;;;23.30;23.50;;;;;;5062422;28;39169;-78
2021/04/21 06:16:32;;;;;;;22.63;16.67;;;23.70;23.40;;;;;;5076991;28;39688;-77
2021/04/21 06:19:01;;;;;;;20.93;16.73;;;23.90;22.80;;;;;;5066790;28;38359;-77
2021/04/21 06:21:34;;;;;;;17.53;15.60;;;23.70;22.70;;;;;;5064129;28;38928;-77
2021/04/21 06:24:01;;;;;;;18.40;16.37;;;23.80;22.90;;;;;;5076845;28;40587;-78
2021/04/21 06:26:31;;;;;;;18.27;16.33;;;24.30;22.60;;;;;;5056322;28;38978;-78
2021/04/21 06:29:03;;;;;;;17.53;15.70;;;24.60;22.20;;;;;;5071288;28;38227;-78
2021/04/21 06:31:43;;;;;;;18.43;16.63;;;25.20;21.80;;;;;;5039271;28;37332;-78
2021/04/21 06:34:12;;;;;;;17.83;16.03;;;25.90;21.20;;;;;;5064411;28;39873;-78
2021/04/21 06:36:43;;;;;;;19.60;17.63;;;26.90;20.50;;;;;;5055856;28;38859;-78
2021/04/21 06:39:11;;;;;;;18.07;16.23;;;27.70;19.70;;;;;;5062775;28;38468;-78
2021/04/21 06:41:39;;;;;;;19.50;17.57;;;28.00;19.50;;;;;;5081616;28;37754;-78
2021/04/21 06:44:06;;;;;;;20.60;16.13;;;28.40;19.20;;;;;;5071704;28;40640;-77
2021/04/21 06:46:33;;;;;;;27.73;17.90;;;28.90;18.60;;;;;;5063142;28;38839;-78
2021/04/21 06:49:02;;;;;;;24.67;17.23;;;29.50;18.40;;;;;;5070995;28;39390;-78
2021/04/21 06:51:31;;;;;;;24.80;17.40;;;30.10;17.70;;;;;;5072955;28;37524;-78
2021/04/21 06:54:00;;;;;;;22.70;18.03;;;30.30;17.50;;;;;;5077220;28;39433;-78
2021/04/21 06:56:29;;;;;;;19.60;17.60;;;30.50;17.20;;;;;;5071301;28;38966;-77
2021/04/21 06:58:56;;;;;;;18.30;16.50;;;30.70;16.80;;;;;;5071566;28;39145;-78
2021/04/21 07:01:28;;;;;;;23.50;17.40;;;30.90;16.90;;;;;;5053037;28;36079;-78
2021/04/21 07:04:13;;;;;;;19.17;17.00;;;31.20;16.50;;;;;;5052539;28;38477;-77
2021/04/21 07:06:41;;;;;;;19.60;17.80;;;31.90;16.30;;;;;;5068098;28;40261;-78
2021/04/21 07:09:16;;;;;;;18.63;16.93;;;32.10;15.80;;;;;;5070820;28;38495;-78
2021/04/21 07:11:55;;;;;;;19.67;17.80;;;32.40;15.40;;;;;;5068623;28;37947;-78
2021/04/21 07:14:23;;;;;;;18.43;16.77;;;32.90;15.20;;;;;;5050070;28;38619;-78
2021/04/21 07:16:53;;;;;;;20.13;16.93;;;33.30;14.80;;;;;;5066367;28;39146;-78
2021/04/21 07:19:21;;;;;;;19.33;17.03;;;33.70;14.70;;;;;;5052648;28;37282;-78
2021/04/21 07:21:49;;;;;;;20.10;18.10;;;33.70;14.30;;;;;;5071484;28;37321;-78
2021/04/21 07:24:19;;;;;;;20.57;18.57;;;34.00;14.20;;;;;;5072299;28;39493;-78
2021/04/21 07:26:48;;;;;;;19.77;17.87;;;34.20;14.10;;;;;;5077487;28;39611;-78
2021/04/21 07:29:19;;;;;;;19.37;17.47;;;34.60;13.60;;;;;;5080872;28;38996;-77
2021/04/21 07:31:46;;;;;;;19.40;17.30;;;34.40;13.20;;;;;;5094016;28;39755;-79
2021/04/21 07:34:27;;;;;;;18.67;16.73;;;34.70;13.20;;;;;;5088559;28;42613;-78
2021/04/21 07:36:54;;;;;;;18.27;16.77;;;35.40;13.00;;;;;;5067059;28;37453;-78
2021/04/21 07:39:31;;;;;;;18.70;17.20;;;35.80;12.80;;;;;;5077201;28;39158;-78
2021/04/21 07:41:58;;;;;;;19.17;17.10;;;36.10;12.40;;;;;;5068274;28;37434;-79
2021/04/21 07:44:27;;;;;;;19.80;17.87;;;36.50;12.30;;;;;;5072202;28;39506;-79
2021/04/21 07:46:55;;;;;;;17.53;15.90;;;36.50;12.50;;;;;;5070435;28;39762;-79
2021/04/21 07:49:29;;;;;;;20.10;18.00;;;37.00;12.30;;;;;;5071084;28;39669;-78
2021/04/21 07:51:56;;;;;;;20.20;18.30;;;37.50;12.00;;;;;;5056798;28;37983;-78
2021/04/21 07:54:30;;;;;;;20.50;18.43;;;37.80;11.60;;;;;;5054996;28;39403;-79
2021/04/21 07:57:04;;;;;;;18.50;16.20;;;38.30;11.40;;;;;;5076001;28;38832;-78
2021/04/21 07:59:32;;;;;;;19.87;18.07;;;38.80;11.50;;;;;;5073161;28;39218;-78
2021/04/21 08:02:11;;;;;;;18.90;17.20;;;38.40;10.80;;;;;;5074125;28;37673;-77
2021/04/21 08:04:53;;;;;;;18.80;17.10;;;38.20;10.80;;;;;;5055757;28;38212;-77
2021/04/21 08:07:29;;;;;;;18.80;16.90;;;37.80;11.00;;;;;;5063118;28;40153;-78
2021/04/21 08:09:58;;;;;;;19.80;17.90;;;38.00;10.60;;;;;;5073496;28;38560;-79
2021/04/21 08:12:27;;;;;;;19.10;17.27;;;38.40;10.60;;;;;;5073269;28;37980;-79
2021/04/21 08:15:00;;;;;;;18.67;17.17;;;38.70;10.40;;;;;;5074923;28;39747;-79
2021/04/21 08:17:27;;;;;;;19.70;17.73;;;38.40;10.10;;;;;;5069636;28;38919;-79
2021/04/21 08:19:56;;;;;;;19.17;17.20;;;38.80;10.40;;;;;;5055404;28;38578;-80
2021/04/21 08:22:25;;;;;;;19.67;17.73;;;39.10;10.30;;;;;;5056591;28;35954;-78
2021/04/21 08:24:53;;;;;;;23.27;17.83;;;39.60;10.30;;;;;;5086986;28;39878;-79
2021/04/21 08:27:22;;;;;;;24.20;17.93;;;40.00;9.70;;;;;;5055554;28;37952;-79
2021/04/21 08:29:51;;;;;;;20.27;17.90;;;40.10;9.90;;;;;;5062146;28;38331;-78
2021/04/21 08:32:22;;;;;;;20.93;18.30;;;40.10;9.60;;;;;;5053251;28;36785;-78
2021/04/21 08:34:52;;;;;;;25.23;17.70;;;40.00;9.50;;;;;;5074116;28;40273;-79
2021/04/21 08:37:22;;;;;;;19.00;17.40;;;40.30;9.50;;;;;;5075922;28;39222;-78
2021/04/21 08:39:50;;;;;;;19.43;17.00;;;40.60;9.10;;;;;;5075325;28;39498;-78
2021/04/21 08:42:22;;;;;;;21.30;19.20;;;40.70;9.10;;;;;;5073327;28;37664;-78
2021/04/21 08:44:49;;;;;;;19.83;18.07;;;40.50;9.10;;;;;;5071817;28;40750;-79
2021/04/21 08:47:18;;;;;;;19.80;18.00;;;40.80;9.10;;;;;;5072556;28;40266;-79
2021/04/21 08:49:45;;;;;;;18.67;16.77;;;41.20;8.90;;;;;;5072518;28;38830;-79
2021/04/21 08:52:16;;;;;;;20.43;18.13;;;41.40;8.70;;;;;;5073391;28;38104;-78
2021/04/21 08:54:47;;;;;;;18.27;16.60;;;40.70;8.60;;;;;;5052214;28;38243;-79
2021/04/21 08:57:14;;;;;;;17.23;15.83;;;40.60;8.90;;;;;;5050532;28;39118;-78
2021/04/21 08:59:43;;;;;;;16.57;15.17;;;41.00;9.10;;;;;;5057771;28;38562;-79
2021/04/21 09:02:12;;;;;;;17.10;15.77;;;41.00;9.00;;;;;;5073855;28;37732;-80
2021/04/21 09:04:39;;;;;;;17.90;16.30;;;40.90;8.90;;;;;;5050934;28;40640;-79
2021/04/21 09:07:06;;;;;;;17.63;15.87;;;41.40;9.00;;;;;;5053185;28;37832;-79
2021/04/21 09:09:34;;;;;;;16.23;14.83;;;41.60;9.10;;;;;;5073458;28;38307;-79
2021/04/21 09:12:02;;;;;;;17.40;15.60;;;42.10;8.70;;;;;;5048237;28;38550;-79
2021/04/21 09:14:32;;;;;;;16.43;14.87;;;42.00;8.20;;;;;;5047293;28;38457;-79
2021/04/21 09:17:00;;;;;;;16.63;15.20;;;41.60;8.40;;;;;;5068155;28;39771;-79
2021/04/21 09:19:27;;;;;;;16.50;14.80;;;41.30;8.70;;;;;;5060283;28;38266;-79
2021/04/21 09:22:09;;;;;;;16.73;15.27;;;41.50;8.90;;;;;;5009143;28;36035;-79
2021/04/21 09:24:37;;;;;;;15.57;14.27;;;41.90;8.80;;;;;;5059706;28;39709;-78
2021/04/21 09:27:30;;;;;;;15.00;13.63;;;42.40;8.50;;;;;;5051441;28;37799;-78
2021/04/21 09:30:16;;;;;;;15.63;14.00;;;42.90;8.20;;;;;;5068269;28;38491;-79
2021/04/21 09:32:47;;;;;;;15.27;14.00;;;43.40;8.10;;;;;;5065939;28;38288;-78
2021/04/21 09:35:23;;;;;;;14.03;12.83;;;42.80;7.80;;;;;;5062247;28;39509;-79
2021/04/21 09:37:52;;;;;;;14.77;13.37;;;42.60;8.00;;;;;;5060616;28;37761;-79
2021/04/21 09:40:52;;;;;;;13.70;12.60;;;42.60;8.10;;;;;;5064572;28;38427;-79
2021/04/21 09:43:22;;;;;;;13.47;12.27;;;42.10;7.70;;;;;;5005484;28;37186;-79
2021/04/21 09:45:53;;;;;;;19.70;12.27;;;41.40;7.80;;;;;;5054207;28;40565;-79
2021/04/21 09:48:26;;;;;;;13.90;12.57;;;41.20;8.10;;;;;;5038795;28;37543;-79
2021/04/21 09:50:59;;;;;;;12.77;11.53;;;41.40;8.40;;;;;;5069021;28;38369;-79
2021/04/21 09:53:29;;;;;;;12.87;11.67;;;41.70;7.90;;;;;;5090162;28;37186;-77
2021/04/21 09:56:07;;;;;;;12.10;11.00;;;41.70;8.00;;;;;;5085667;28;40947;-78
2021/04/21 09:58:37;;;;;;;18.47;11.83;;;41.90;7.70;;;;;;5076789;28;38991;-78
2021/04/21 10:01:21;;;;;;;10.97;9.77;;;42.10;7.80;;;;;;5064832;28;38417;-79
2021/04/21 10:04:08;;;;;;;12.03;10.87;;;42.20;7.60;;;;;;5055244;28;38051;-79
2021/04/21 10:06:35;;;;;;;10.60;9.80;;;41.60;7.10;;;;;;5063603;28;40193;-79
2021/04/21 10:09:04;;;;;;;10.30;9.43;;;41.40;7.40;;;;;;5072755;28;40192;-79
2021/04/21 10:11:31;;;;;;;9.60;8.80;;;40.30;6.80;;;;;;5065842;28;38547;-78
2021/04/21 10:13:58;;;;;;;10.23;9.33;;;39.60;7.50;;;;;;5057150;28;35762;-79
2021/04/21 10:16:26;;;;;;;9.13;8.33;;;39.00;6.60;;;;;;5064424;28;40339;-79
2021/04/21 10:18:56;;;;;;;10.10;9.20;;;38.60;7.60;;;;;;5067197;28;38774;-79
2021/04/21 10:21:23;;;;;;;9.43;8.53;;;38.30;7.80;;;;;;5056781;28;38533;-79
2021/04/21 10:23:51;;;;;;;9.30;8.47;;;38.60;7.60;;;;;;5068601;28;36971;-79
2021/04/21 10:26:18;;;;;;;8.40;7.57;;;38.80;7.50;;;;;;5072327;28;40289;-79
2021/04/21 10:28:46;;;;;;;12.40;7.70;;;39.20;7.00;;;;;;5077057;28;39849;-79
2021/04/21 10:31:15;;;;;;;9.67;8.37;;;39.20;6.90;;;;;;5079988;28;38251;-79
2021/04/21 10:33:43;;;;;;;9.60;8.47;;;39.40;7.20;;;;;;5073488;28;38362;-80
2021/04/21 10:36:12;;;;;;;8.50;7.80;;;39.50;6.80;;;;;;5060953;28;38638;-79
2021/04/21 10:38:43;;;;;;;8.73;7.93;;;39.40;7.40;;;;;;5048649;28;38043;-80
2021/04/21 10:41:28;;;;;;;10.10;8.37;;;39.30;7.20;;;;;;5056491;28;38514;-78
2021/04/21 10:44:10;;;;;;;9.37;8.50;;;39.00;6.80;;;;;;5062404;28;37397;-77
2021/04/21 10:47:01;;;;;;;8.60;7.80;;;38.80;7.60;;;;;;5059132;28;39425;-77
2021/04/21 10:49:39;;;;;;;9.83;8.00;;;39.00;7.00;;;;;;5048092;28;37846;-78
2021/04/21 10:52:15;;;;;;;9.30;8.50;;;38.20;6.90;;;;;;5053279;28;38449;-77
2021/04/21 10:54:43;;;;;;;8.53;7.50;;;36.70;7.20;;;;;;5069071;28;36929;-77
2021/04/21 10:57:30;;;;;;;8.80;8.00;;;35.50;8.10;;;;;;5065977;28;40392;-78
2021/04/21 11:00:10;;;;;;;9.43;8.50;;;34.00;8.70;;;;;;5054976;28;37933;-82
2021/04/21 11:03:02;;;;;;;8.43;7.63;;;34.20;8.90;;;;;;5047600;28;37005;-81
2021/04/21 11:05:42;;;;;;;12.77;8.60;;;34.40;8.70;;;;;;5052503;28;38076;-81
2021/04/21 11:08:12;;;;;;;8.77;7.90;;;33.80;8.60;;;;;;5068329;28;39829;-82
2021/04/21 11:10:59;;;;;;;8.43;7.63;;;33.00;9.60;;;;;;5083153;28;38012;-81
2021/04/21 11:13:44;;;;;;;8.53;7.83;;;32.20;10.20;;;;;;5068571;28;37910;-81
2021/04/21 11:16:34;;;;;;;9.07;8.20;;;32.10;10.50;;;;;;5053193;28;35535;-82
2021/04/21 11:19:31;;;;;;;9.73;8.00;;;31.90;9.60;;;;;;5070978;28;40370;-81
2021/04/21 11:22:27;;;;;;;7.60;7.00;;;31.20;10.10;;;;;;5071231;28;38238;-80
2021/04/21 11:25:21;;;;;;;7.53;6.77;;;30.60;10.70;;;;;;5070347;28;38641;-77
2021/04/21 11:27:49;;;;;;;9.23;6.90;;;29.50;10.40;;;;;;5068692;28;38065;-78
2021/04/21 11:30:51;;;;;;;7.70;7.00;;;28.70;11.10;;;;;;5080023;28;40587;-78
2021/04/21 11:33:55;;;;;;;9.50;7.77;;;27.40;12.00;;;;;;5062517;28;37391;-78
2021/04/21 11:36:52;;;;;;;6.80;6.20;;;27.00;13.10;;;;;;5064618;28;39365;-79
2021/04/21 11:40:06;;;;;;;8.47;7.57;;;26.50;13.50;;;;;;5073920;28;36748;-78
2021/04/21 11:42:40;;;;;;;10.83;6.40;;;26.00;13.30;;;;;;5038598;28;39495;-78
2021/04/21 11:45:23;;;;;;;7.30;6.67;;;25.70;14.20;;;;;;5065132;28;39626;-79
2021/04/21 11:47:52;;;;;;;8.77;6.87;;;25.30;13.90;;;;;;5072337;28;38575;-78
2021/04/21 11:50:25;;;;;;;8.60;7.00;;;25.10;14.40;;;;;;5068561;28;38205;-79
2021/04/21 11:53:12;;;;;;;6.97;5.90;;;24.80;14.40;;;;;;5080961;28;40670;-78
2021/04/21 11:55:41;;;;;;;9.70;6.43;;;24.60;14.40;;;;;;5056597;28;37640;-80
2021/04/21 11:58:13;;;;;;;12.07;7.47;;;24.30;14.60;;;;;;5072044;28;39551;-78
2021/04/21 12:00:42;;;;;;;7.33;6.60;;;24.00;14.40;;;;;;5056623;28;36977;-78
2021/04/21 12:03:17;;;;;;;7.27;6.57;;;23.60;14.10;;;;;;5077760;28;39646;-78
2021/04/21 12:05:45;;;;;;;8.93;6.70;;;23.20;14.30;;;;;;5044629;28;38760;-79
2021/04/21 12:08:13;;;;;;;10.00;5.87;;;23.10;14.60;;;;;;5070565;28;38485;-78
2021/04/21 12:10:47;;;;;;;12.43;5.73;;;23.10;15.00;;;;;;5060109;28;36120;-77
2021/04/21 12:13:25;;;;;;;5.63;5.00;;;23.00;13.70;;;;;;5057026;28;39083;-77
2021/04/21 12:16:07;;;;;;;6.97;5.27;;;23.00;14.40;;;;;;5092882;28;40246;-78
2021/04/21 12:18:40;;;;;;;11.37;4.93;;;23.10;13.90;;;;;;5093127;28;36924;-78
2021/04/21 12:21:23;;;;;;;6.33;4.77;;;23.20;14.60;;;;;;5072745;28;37205;-78
2021/04/21 12:23:52;;;;;;;5.47;4.87;;;23.20;14.20;;;;;;5073386;28;39460;-78
2021/04/21 12:26:21;;;;;;;14.93;5.50;;;23.10;14.20;;;;;;5074604;28;39101;-77
2021/04/21 12:28:54;;;;;;;5.10;4.60;;;23.20;13.90;;;;;;5073097;28;38352;-78
2021/04/21 12:31:22;;;;;;;7.23;4.80;;;23.20;13.90;;;;;;5071371;28;35836;-78
2021/04/21 12:33:49;;;;;;;11.90;5.00;;;23.30;14.10;;;;;;5067561;28;39907;-78
2021/04/21 12:36:18;;;;;;;9.07;5.13;;;23.20;14.10;;;;;;5085977;28;37709;-78
2021/04/21 12:39:00;;;;;;;9.80;5.33;;;23.20;14.40;;;;;;5063003;28;38170;-79
2021/04/21 12:41:28;;;;;;;9.17;5.60;;;23.20;14.60;;;;;;5071725;28;36932;-77
2021/04/21 12:44:12;;;;;;;14.90;5.70;;;23.40;14.10;;;;;;5077556;28;40635;-77
2021/04/21 12:46:39;;;;;;;5.60;4.83;;;23.40;13.60;;;;;;5040529;28;39161;-77
2021/04/21 12:49:08;;;;;;;5.80;4.70;;;23.30;13.20;;;;;;5067227;28;38208;-77
2021/04/21 12:51:44;;;;;;;9.00;4.80;;;23.50;13.80;;;;;;5075051;28;37267;-77
2021/04/21 12:54:32;;;;;;;5.93;4.37;;;23.50;13.30;;;;;;5071730;28;40561;-77
2021/04/21 12:57:00;;;;;;;5.47;3.37;;;23.40;12.80;;;;;;5068674;28;39819;-77
2021/04/21 12:59:28;;;;;;;6.53;4.30;;;23.50;12.20;;;;;;5069453;28;38172;-77
2021/04/21 13:01:55;;;;;;;8.50;4.23;;;23.50;13.20;;;;;;5075214;28;38095;-77
2021/04/21 13:04:34;;;;;;;14.00;5.73;;;23.60;13.80;;;;;;5073269;28;40675;-77
2021/04/21 13:07:12;;;;;;;7.00;5.50;;;23.70;13.40;;;;;;5053510;28;38175;-77
2021/04/21 13:09:39;;;;;;;6.17;5.47;;;23.60;13.20;;;;;;5072236;28;38391;-77
2021/04/21 13:12:10;;;;;;;4.87;4.33;;;23.50;14.10;;;;;;5086924;28;38052;-77
2021/04/21 13:14:41;;;;;;;5.70;4.57;;;23.30;13.00;;;;;;5053929;28;39095;-77
2021/04/21 13:17:09;;;;;;;5.00;3.73;;;23.20;13.20;;;;;;5068795;28;39715;-76